Nearby METAR Reports

 

EBAW - Antwerp/Deurne, Belgium
Distance from station: ZZO 9km
Ververst: 15/05/2021 15:20
Meestal bewolkt
Meestal bewolkt
 Wind van ZZO
Wind: ZZO 19 km/h
Temperatuur: 11°C
Dauwpunt: 9°C
Vochtigheid: 88%
Barometer: 1001 hPa
Clouds: Meestal bewolkt
Visibility: 10 km
Cloud details: Gedeeltelijk bewolkt 488 m
Meestal bewolkt 792 m
2021/05/15 13:20 EBAW 151320Z 16010KT 9999 SCT016 BKN026 11/09 Q1001 NOSIG
EHWO - Woensdrecht Rnla, Netherlands
Distance from station: NNW 20km
Ververst: 15/05/2021 15:37
Lichte regen, Drizzle, Zwaar bewolkt
Lichte regen, Drizzle, Zwaar bewolkt
 Wind van Z
Wind: Z 11 km/h
Temperatuur: 12°C
Dauwpunt: 8°C
Vochtigheid: 77%
Barometer: 1001 hPa
Overzicht: Lichte regen, Drizzle
Clouds: Zwaar bewolkt
Visibility: 10 km
Cloud details: Few Clouds 610 m
Meestal bewolkt 701 m
Zwaar bewolkt 823 m
2021/05/15 13:37 EHWO 151337Z AUTO 17006KT 130V210 9999 -RADZ FEW020 BKN023 OVC027 12/08 Q1001 WHT
 
EBBR - Brussels Nationa, Belgium
Distance from station: Z 43km
Ververst: 15/05/2021 15:20
Meestal bewolkt
Meestal bewolkt
 Wind van Z
Wind: Z 9 km/h
Temperatuur: 11°C
Dauwpunt: 9°C
Vochtigheid: 88%
Barometer: 1001 hPa
Clouds: Meestal bewolkt
Visibility: 8 km
Cloud details: Gedeeltelijk bewolkt 427 m
Meestal bewolkt 1219 m
2021/05/15 13:20 EBBR 151320Z 17005KT 8000 SCT014 BKN040 11/09 Q1001 TEMPO 4000 SHRA BKN014TCU
EHGR - Gilze-Rijen Rnla, Netherlands
Distance from station: NO 47km
Ververst: 15/05/2021 15:25
Lichte regen, Zwaar bewolkt
Lichte regen, Zwaar bewolkt
 Wind van Z
Wind: Z 9 km/h
Temperatuur: 12°C
Dauwpunt: 9°C
Vochtigheid: 82%
Barometer: 1001 hPa
Overzicht: Lichte regen
Clouds: Zwaar bewolkt
Visibility: 10 km
Cloud details: Gedeeltelijk bewolkt 1158 m
Zwaar bewolkt 1280 m
2021/05/15 13:25 EHGR 151325Z AUTO 19005KT 120V240 9999 -RA SCT038 OVC042 12/09 Q1001 RERA REDZ BLU
 
EBDT - Schaffen, Belgium
Distance from station: OZO 54km
Ververst: 15/05/2021 15:43
Zwaar bewolkt
Zwaar bewolkt
 Wind van Z
Wind: Z 11 km/h
Temperatuur: 12°C
Dauwpunt: 8°C
Vochtigheid: 77%
Barometer: 1001 hPa
Clouds: Zwaar bewolkt
Visibility: 10 km
Cloud details: Zwaar bewolkt 823 m
2021/05/15 13:43 EBDT 151343Z AUTO 17006KT 9999 OVC027/// 12/08 Q1001 BLU
EHFS - Vlissingen, Netherlands
Distance from station: WNW 60km
Ververst: 15/05/2021 15:25
Zwaar bewolkt
Zwaar bewolkt
 Wind van Z
Wind: Z 28 km/h
Temperatuur: 11°C
Dauwpunt: 9°C
Vochtigheid: 88%
Barometer: 1000 hPa
Clouds: Zwaar bewolkt
Visibility: 8 km
Cloud details: Few Clouds 183 m
Meestal bewolkt 488 m
Zwaar bewolkt 610 m
2021/05/15 13:25 EHFS 151325Z AUTO 17015KT 8000 FEW006/// BKN016/// OVC020/// 11/09 Q1000
 
EBBE - Beauvechain (baf, Belgium
Distance from station: ZZO 64km
Ververst: 15/05/2021 15:25
Zwaar bewolkt
Zwaar bewolkt
 Wind van Z
Wind: Z 22 km/h
Temperatuur: 12°C
Dauwpunt: 9°C
Vochtigheid: 82%
Barometer: 1001 hPa
Clouds: Zwaar bewolkt
Visibility: 10 km
Cloud details: Few Clouds 549 m
Zwaar bewolkt 1463 m
2021/05/15 13:25 EBBE 151325Z AUTO 18012KT 9999 FEW018/// OVC048/// 12/09 Q1001 BLU
EHEH - Eindhoven Rnlafb, Netherlands
Distance from station: ONO 69km
Ververst: 15/05/2021 15:25
Zwaar bewolkt
Zwaar bewolkt
 Wind van ZW
Wind: ZW 19 km/h
Temperatuur: 14°C
Dauwpunt: 7°C
Vochtigheid: 63%
Barometer: 1001 hPa
Clouds: Zwaar bewolkt
Visibility: 10 km
Cloud details: Meestal bewolkt 945 m
Meestal bewolkt 1250 m
Zwaar bewolkt 1433 m
2021/05/15 13:25 EHEH 151325Z AUTO 23010KT 190V260 9999 BKN031 BKN041 OVC047 14/07 Q1001 BLU TEMPO 4500 -SHRA -RA FEW010 SCT018CB BKN030
 
EBBL - Kleine-Brogel(Ba, Belgium
Distance from station: O 74km
Ververst: 13/05/2021 07:55
NOT Current
Zwaar bewolkt
Zwaar bewolkt
 Wind van varies
Wind: varies 4 km/h
Temperatuur: 10°C
Dauwpunt: 9°C
Vochtigheid: 94%
Barometer: 1007 hPa
Clouds: Zwaar bewolkt
Visibility: 10 km
Cloud details: Zwaar bewolkt 3048 m
2021/05/13 05:55 EBBL 130555Z AUTO VRB02KT 9999 OVC100/// 10/09 Q1007 BLU
EHRD - Rotterdam Airpor, Netherlands
Distance from station: N 75km
Ververst: 15/05/2021 15:25
Lichte regen, Meestal bewolkt
Lichte regen, Meestal bewolkt
 Wind van Z
Wind: Z 20 km/h
Temperatuur: 12°C
Dauwpunt: 8°C
Vochtigheid: 77%
Barometer: 1001 hPa
Overzicht: Lichte regen
Clouds: Meestal bewolkt
Visibility: 10 km
Cloud details: Few Clouds 457 m
Gedeeltelijk bewolkt 732 m
Meestal bewolkt 1006 m
2021/05/15 13:25 EHRD 151325Z AUTO 18011KT 150V210 9999 -RA FEW015CB SCT024 BKN033 12/08 Q1001 RERA REDZ TEMPO 7000 -SHRA SCT020TCU BKN022
 
EHSC - Goeree Le Sea, Netherlands
Distance from station: NW 89km
Ververst: 15/05/2021 15:25

 Wind van ZZW
Wind: ZZW 13 km/h
Temperatuur: 11°C
Dauwpunt: 8°C
Vochtigheid: 82%
Barometer: 1001 hPa
Visibility: 10 km
2021/05/15 13:25 EHSC 151325Z AUTO 20007KT 9999 ///////// 11/08 Q1001 W10/H7
EBCI - Charleroi/Gossel, Belgium
Distance from station: Z 90km
Ververst: 15/05/2021 15:20
Meestal bewolkt
Meestal bewolkt
 Wind van Z
Wind: Z 19 km/h
Temperatuur: 11°C
Dauwpunt: 8°C
Vochtigheid: 82%
Barometer: 1001 hPa
Clouds: Meestal bewolkt
Visibility: 10 km
Cloud details: Few Clouds 335 m
Gedeeltelijk bewolkt 488 m
Meestal bewolkt 762 m
2021/05/15 13:20 EBCI 151320Z 19010KT 9999 FEW011 SCT016 BKN025 11/08 Q1001 NOSIG
 
EBCV - Chievres Ab, Belgium
Distance from station: ZZW 90km
Ververst: 15/05/2021 15:25
Gedeeltelijk bewolkt
Gedeeltelijk bewolkt
 Wind van ZZW
Wind: ZZW 19 km/h
Temperatuur: 13°C
Dauwpunt: 10°C
Vochtigheid: 82%
Barometer: 1001 hPa
Clouds: Gedeeltelijk bewolkt
Visibility: 10 km
Cloud details: Few Clouds 396 m
Gedeeltelijk bewolkt 518 m
2021/05/15 13:25 EBCV 151325Z AUTO 21010KT 9999 FEW013/// SCT017/// 13/10 Q1001 WHT
EHVK - Volkel Rnlafb, Netherlands
Distance from station: ONO 97km
Ververst: 15/05/2021 15:39
Lichte regen, Meestal bewolkt
Lichte regen, Meestal bewolkt
 Wind van Z
Wind: Z 9 km/h
Temperatuur: 13°C
Dauwpunt: 10°C
Vochtigheid: 82%
Barometer: 1001 hPa
Overzicht: Lichte regen
Clouds: Meestal bewolkt
Visibility: 10 km
Cloud details: Few Clouds 457 m
Gedeeltelijk bewolkt 1036 m
Meestal bewolkt 1463 m
2021/05/15 13:39 EHVK 151339Z AUTO 19005KT 160V240 9999 -RA FEW015CB SCT034 BKN048 13/10 Q1001 BLU
 
EBLG - Bierset/Liege (c, Belgium
Distance from station: ZO 102km
Ververst: 15/05/2021 15:20
Meestal bewolkt
Meestal bewolkt
 Wind van Z
Wind: Z 19 km/h
Temperatuur: 12°C
Dauwpunt: 6°C
Vochtigheid: 67%
Barometer: 1002 hPa
Clouds: Meestal bewolkt
Visibility: 10 km
Cloud details: Gedeeltelijk bewolkt 610 m
Meestal bewolkt 1067 m
2021/05/15 13:20 EBLG 151320Z 18010KT 9999 SCT020 BKN035 12/06 Q1002 NOSIG
EHBK - Zuid-Limburg/Bee, Netherlands
Distance from station: OZO 102km
Ververst: 15/05/2021 15:25
Lichte regen, Zwaar bewolkt
Lichte regen, Zwaar bewolkt
 Wind van ZZW
Wind: ZZW 26 km/h
Temperatuur: 12°C
Dauwpunt: 7°C
Vochtigheid: 72%
Barometer: 1002 hPa
Overzicht: Lichte regen
Clouds: Zwaar bewolkt
Visibility: 10 km
Cloud details: Meestal bewolkt 1036 m
Zwaar bewolkt 1158 m
2021/05/15 13:25 EHBK 151325Z AUTO 20014KT 160V230 9999 -RA BKN034 OVC038 12/07 Q1002 TEMPO 7000 -SHRA FEW020CB
 
EBOS - Oostende Airport, Belgium
Distance from station: W 108km
Ververst: 15/05/2021 15:20
Meestal bewolkt
Meestal bewolkt
 Wind van ZZO
Wind: ZZO 19 km/h
Temperatuur: 12°C
Dauwpunt: 10°C
Vochtigheid: 88%
Barometer: 1000 hPa
Clouds: Meestal bewolkt
Visibility: 10 km
Cloud details: Gedeeltelijk bewolkt 244 m
Meestal bewolkt 366 m
2021/05/15 13:20 EBOS 151320Z 15010KT 9999 SCT008 BKN012 12/10 Q1000 RERA TEMPO 4000 RA BECMG 25015KT
EHSA - Euro Platform, Netherlands
Distance from station: NW 112km
Ververst: 15/05/2021 15:25
Mist
Mist
 Wind van O
Wind: O 15 km/h
Temperatuur: 10°C
Gevoelstemp.: 8°C
Dauwpunt: 9°C
Vochtigheid: 94%
Barometer: 1001 hPa
Overzicht: Mist
Visibility: 5 km
2021/05/15 13:25 EHSA 151325Z AUTO 10008KT 4900 BR ///////// 10/09 Q1001 W10/H8
 
EHAM - Amsterdam/Schiph, Netherlands
Distance from station: NNO 118km
Ververst: 15/05/2021 15:25
Gedeeltelijk bewolkt
Gedeeltelijk bewolkt
 Wind van Z
Wind: Z 7 km/h
Temperatuur: 14°C
Dauwpunt: 8°C
Vochtigheid: 67%
Barometer: 1001 hPa
Clouds: Gedeeltelijk bewolkt
Visibility: 10 km
Cloud details: Few Clouds 762 m
Gedeeltelijk bewolkt 1463 m
2021/05/15 13:25 EHAM 151325Z 18004KT 130V230 9999 FEW025 SCT048 14/08 Q1001 NOSIG
ETNG - Geilenkirchen(Na, Germany
Distance from station: OZO 118km
Ververst: 14/05/2021 19:50
NOT Current
Light thunderstorm, Regen, Meestal bewolkt
Light thunderstorm, Regen, Meestal bewolkt
 Wind van ZZO
Wind: ZZO 13 km/h
Temperatuur: 14°C
Dauwpunt: 8°C
Vochtigheid: 67%
Barometer: 1007 hPa
Overzicht: Light thunderstorm, Regen
Clouds: Meestal bewolkt
Visibility: 10 km
Cloud details: Gedeeltelijk bewolkt 610 m
Meestal bewolkt 1524 m
2021/05/14 17:50 ETNG 141750Z 16007KT 9999 -TSRA SCT020CB BKN050 14/08 Q1007 BECMG NSW